sensor_id;sensor_type;location;lat;lon;timestamp;P1;durP1;ratioP1;P2;durP2;ratioP2
70253;SDS011;57649;42.968;1.608;2023-02-15T00:01:18;31.45;;;21.00;;
70253;SDS011;57649;42.968;1.608;2023-02-15T00:03:43;31.83;;;21.35;;
70253;SDS011;57649;42.968;1.608;2023-02-15T00:06:09;31.08;;;21.33;;
70253;SDS011;57649;42.968;1.608;2023-02-15T00:08:34;32.92;;;21.17;;
70253;SDS011;57649;42.968;1.608;2023-02-15T00:11:07;33.22;;;20.60;;
70253;SDS011;57649;42.968;1.608;2023-02-15T00:13:33;28.55;;;19.85;;
70253;SDS011;57649;42.968;1.608;2023-02-15T00:16:03;25.73;;;19.02;;
70253;SDS011;57649;42.968;1.608;2023-02-15T00:18:35;27.50;;;19.38;;
70253;SDS011;57649;42.968;1.608;2023-02-15T00:21:04;32.22;;;19.90;;
70253;SDS011;57649;42.968;1.608;2023-02-15T00:23:34;31.60;;;20.73;;
70253;SDS011;57649;42.968;1.608;2023-02-15T00:26:07;32.47;;;22.85;;
70253;SDS011;57649;42.968;1.608;2023-02-15T00:28:34;30.92;;;22.13;;
70253;SDS011;57649;42.968;1.608;2023-02-15T00:31:03;33.28;;;22.83;;
70253;SDS011;57649;42.968;1.608;2023-02-15T00:33:33;31.55;;;20.90;;
70253;SDS011;57649;42.968;1.608;2023-02-15T00:35:59;33.70;;;22.60;;
70253;SDS011;57649;42.968;1.608;2023-02-15T00:38:26;36.08;;;24.27;;
70253;SDS011;57649;42.968;1.608;2023-02-15T00:40:56;33.22;;;22.58;;
70253;SDS011;57649;42.968;1.608;2023-02-15T00:43:23;33.92;;;21.45;;
70253;SDS011;57649;42.968;1.608;2023-02-15T00:45:50;37.00;;;24.75;;
70253;SDS011;57649;42.968;1.608;2023-02-15T00:48:15;35.75;;;23.10;;
70253;SDS011;57649;42.968;1.608;2023-02-15T00:50:41;36.95;;;25.42;;
70253;SDS011;57649;42.968;1.608;2023-02-15T00:53:07;39.03;;;24.27;;
70253;SDS011;57649;42.968;1.608;2023-02-15T00:55:33;31.65;;;24.50;;
70253;SDS011;57649;42.968;1.608;2023-02-15T00:57:58;31.05;;;19.73;;
70253;SDS011;57649;42.968;1.608;2023-02-15T01:00:24;30.50;;;20.73;;
70253;SDS011;57649;42.968;1.608;2023-02-15T01:02:49;32.78;;;22.10;;
70253;SDS011;57649;42.968;1.608;2023-02-15T01:05:15;29.17;;;20.45;;
70253;SDS011;57649;42.968;1.608;2023-02-15T01:07:40;29.92;;;18.92;;
70253;SDS011;57649;42.968;1.608;2023-02-15T01:10:06;30.45;;;20.27;;
70253;SDS011;57649;42.968;1.608;2023-02-15T01:12:32;31.08;;;23.02;;
70253;SDS011;57649;42.968;1.608;2023-02-15T01:14:58;32.85;;;21.33;;
70253;SDS011;57649;42.968;1.608;2023-02-15T01:17:23;32.33;;;21.20;;
70253;SDS011;57649;42.968;1.608;2023-02-15T01:19:49;30.05;;;20.85;;
70253;SDS011;57649;42.968;1.608;2023-02-15T01:22:16;32.28;;;20.38;;
70253;SDS011;57649;42.968;1.608;2023-02-15T01:24:42;26.35;;;18.00;;
70253;SDS011;57649;42.968;1.608;2023-02-15T01:27:07;27.48;;;18.95;;
70253;SDS011;57649;42.968;1.608;2023-02-15T01:29:32;27.02;;;18.23;;
70253;SDS011;57649;42.968;1.608;2023-02-15T01:31:58;29.98;;;17.55;;
70253;SDS011;57649;42.968;1.608;2023-02-15T01:34:23;28.60;;;17.80;;
70253;SDS011;57649;42.968;1.608;2023-02-15T01:36:49;29.02;;;17.55;;
70253;SDS011;57649;42.968;1.608;2023-02-15T01:39:14;25.42;;;17.42;;
70253;SDS011;57649;42.968;1.608;2023-02-15T01:41:40;26.92;;;17.25;;
70253;SDS011;57649;42.968;1.608;2023-02-15T01:47:14;23.40;;;16.98;;
70253;SDS011;57649;42.968;1.608;2023-02-15T01:49:43;24.70;;;17.08;;
70253;SDS011;57649;42.968;1.608;2023-02-15T01:52:11;25.38;;;16.20;;
70253;SDS011;57649;42.968;1.608;2023-02-15T01:54:40;24.13;;;17.60;;
70253;SDS011;57649;42.968;1.608;2023-02-15T01:57:12;26.58;;;16.38;;
70253;SDS011;57649;42.968;1.608;2023-02-15T01:59:42;21.90;;;15.43;;
70253;SDS011;57649;42.968;1.608;2023-02-15T02:02:11;24.08;;;15.20;;
70253;SDS011;57649;42.968;1.608;2023-02-15T02:04:49;22.98;;;16.48;;
70253;SDS011;57649;42.968;1.608;2023-02-15T02:07:22;25.63;;;16.88;;
70253;SDS011;57649;42.968;1.608;2023-02-15T02:09:51;21.50;;;15.30;;
70253;SDS011;57649;42.968;1.608;2023-02-15T02:12:17;23.17;;;16.35;;
70253;SDS011;57649;42.968;1.608;2023-02-15T02:14:47;21.77;;;15.88;;
70253;SDS011;57649;42.968;1.608;2023-02-15T02:33:47;21.88;;;13.70;;
70253;SDS011;57649;42.968;1.608;2023-02-15T02:36:35;20.00;;;13.30;;
70253;SDS011;57649;42.968;1.608;2023-02-15T02:41:58;20.83;;;14.25;;
70253;SDS011;57649;42.968;1.608;2023-02-15T02:44:42;20.55;;;12.70;;
70253;SDS011;57649;42.968;1.608;2023-02-15T02:50:16;17.98;;;12.70;;
70253;SDS011;57649;42.968;1.608;2023-02-15T02:52:49;16.73;;;12.43;;
70253;SDS011;57649;42.968;1.608;2023-02-15T02:57:52;17.63;;;12.52;;
70253;SDS011;57649;42.968;1.608;2023-02-15T03:00:21;19.83;;;13.98;;
70253;SDS011;57649;42.968;1.608;2023-02-15T03:02:51;20.50;;;14.57;;
70253;SDS011;57649;42.968;1.608;2023-02-15T03:05:23;22.63;;;13.90;;
70253;SDS011;57649;42.968;1.608;2023-02-15T03:07:52;20.85;;;15.20;;
70253;SDS011;57649;42.968;1.608;2023-02-15T03:10:22;24.17;;;17.95;;
70253;SDS011;57649;42.968;1.608;2023-02-15T03:12:49;35.30;;;22.95;;
70253;SDS011;57649;42.968;1.608;2023-02-15T03:15:20;29.42;;;21.05;;
70253;SDS011;57649;42.968;1.608;2023-02-15T03:17:55;25.23;;;18.83;;
70253;SDS011;57649;42.968;1.608;2023-02-15T03:20:32;28.30;;;18.80;;
70253;SDS011;57649;42.968;1.608;2023-02-15T03:23:02;25.17;;;17.95;;
70253;SDS011;57649;42.968;1.608;2023-02-15T03:25:43;29.73;;;19.77;;
70253;SDS011;57649;42.968;1.608;2023-02-15T03:28:11;28.13;;;18.90;;
70253;SDS011;57649;42.968;1.608;2023-02-15T03:30:42;24.52;;;17.52;;
70253;SDS011;57649;42.968;1.608;2023-02-15T03:33:12;23.83;;;17.05;;
70253;SDS011;57649;42.968;1.608;2023-02-15T03:35:43;21.83;;;15.52;;
70253;SDS011;57649;42.968;1.608;2023-02-15T03:38:15;20.08;;;14.88;;
70253;SDS011;57649;42.968;1.608;2023-02-15T03:40:45;23.42;;;14.90;;
70253;SDS011;57649;42.968;1.608;2023-02-15T03:46:06;21.08;;;14.15;;
70253;SDS011;57649;42.968;1.608;2023-02-15T03:48:40;20.38;;;14.50;;
70253;SDS011;57649;42.968;1.608;2023-02-15T03:51:12;23.13;;;14.55;;
70253;SDS011;57649;42.968;1.608;2023-02-15T03:56:37;15.30;;;12.65;;
70253;SDS011;57649;42.968;1.608;2023-02-15T03:59:04;17.45;;;13.32;;
70253;SDS011;57649;42.968;1.608;2023-02-15T04:04:43;15.80;;;11.63;;
70253;SDS011;57649;42.968;1.608;2023-02-15T04:07:11;22.08;;;12.95;;
70253;SDS011;57649;42.968;1.608;2023-02-15T04:09:37;17.02;;;12.43;;
70253;SDS011;57649;42.968;1.608;2023-02-15T04:12:21;21.05;;;13.50;;
70253;SDS011;57649;42.968;1.608;2023-02-15T04:14:46;20.75;;;14.38;;
70253;SDS011;57649;42.968;1.608;2023-02-15T04:17:30;19.73;;;14.23;;
70253;SDS011;57649;42.968;1.608;2023-02-15T04:19:56;17.90;;;14.00;;
70253;SDS011;57649;42.968;1.608;2023-02-15T04:22:40;30.35;;;23.42;;
70253;SDS011;57649;42.968;1.608;2023-02-15T04:25:24;20.30;;;16.67;;
70253;SDS011;57649;42.968;1.608;2023-02-15T04:27:50;16.30;;;13.38;;
70253;SDS011;57649;42.968;1.608;2023-02-15T04:30:18;17.50;;;13.13;;
70253;SDS011;57649;42.968;1.608;2023-02-15T04:32:46;19.63;;;12.75;;
70253;SDS011;57649;42.968;1.608;2023-02-15T04:35:12;21.40;;;15.73;;
70253;SDS011;57649;42.968;1.608;2023-02-15T04:37:39;22.50;;;13.25;;
70253;SDS011;57649;42.968;1.608;2023-02-15T04:40:06;20.92;;;14.30;;
70253;SDS011;57649;42.968;1.608;2023-02-15T04:42:32;19.45;;;12.75;;
70253;SDS011;57649;42.968;1.608;2023-02-15T04:44:58;20.85;;;13.25;;
70253;SDS011;57649;42.968;1.608;2023-02-15T04:47:23;18.70;;;12.40;;
70253;SDS011;57649;42.968;1.608;2023-02-15T04:49:49;21.25;;;12.48;;
70253;SDS011;57649;42.968;1.608;2023-02-15T04:52:15;16.10;;;11.82;;
70253;SDS011;57649;42.968;1.608;2023-02-15T04:54:42;15.60;;;10.93;;
70253;SDS011;57649;42.968;1.608;2023-02-15T04:57:07;16.00;;;11.30;;
70253;SDS011;57649;42.968;1.608;2023-02-15T04:59:34;14.57;;;10.70;;
70253;SDS011;57649;42.968;1.608;2023-02-15T05:01:59;14.48;;;10.15;;
70253;SDS011;57649;42.968;1.608;2023-02-15T05:04:24;12.63;;;9.10;;
70253;SDS011;57649;42.968;1.608;2023-02-15T05:06:50;16.92;;;10.20;;
70253;SDS011;57649;42.968;1.608;2023-02-15T05:09:15;15.15;;;9.18;;
70253;SDS011;57649;42.968;1.608;2023-02-15T05:11:41;11.23;;;9.10;;
70253;SDS011;57649;42.968;1.608;2023-02-15T05:14:07;14.50;;;9.45;;
70253;SDS011;57649;42.968;1.608;2023-02-15T05:16:32;15.70;;;10.18;;
70253;SDS011;57649;42.968;1.608;2023-02-15T05:18:58;14.52;;;10.27;;
70253;SDS011;57649;42.968;1.608;2023-02-15T05:21:23;13.00;;;9.20;;
70253;SDS011;57649;42.968;1.608;2023-02-15T05:23:49;17.25;;;9.82;;
70253;SDS011;57649;42.968;1.608;2023-02-15T05:26:21;14.75;;;9.75;;
70253;SDS011;57649;42.968;1.608;2023-02-15T05:29:07;14.77;;;10.00;;
70253;SDS011;57649;42.968;1.608;2023-02-15T05:31:34;13.05;;;9.63;;
70253;SDS011;57649;42.968;1.608;2023-02-15T05:34:00;16.05;;;10.77;;
70253;SDS011;57649;42.968;1.608;2023-02-15T05:36:25;21.25;;;11.70;;
70253;SDS011;57649;42.968;1.608;2023-02-15T05:38:51;15.20;;;10.82;;
70253;SDS011;57649;42.968;1.608;2023-02-15T05:41:16;16.90;;;10.25;;
70253;SDS011;57649;42.968;1.608;2023-02-15T05:43:42;13.45;;;10.30;;
70253;SDS011;57649;42.968;1.608;2023-02-15T05:46:07;12.75;;;8.90;;
70253;SDS011;57649;42.968;1.608;2023-02-15T05:48:33;18.80;;;10.40;;
70253;SDS011;57649;42.968;1.608;2023-02-15T05:51:11;14.95;;;9.20;;
70253;SDS011;57649;42.968;1.608;2023-02-15T05:53:39;14.48;;;9.88;;
70253;SDS011;57649;42.968;1.608;2023-02-15T05:56:07;17.50;;;10.60;;
70253;SDS011;57649;42.968;1.608;2023-02-15T05:58:35;14.20;;;9.48;;
70253;SDS011;57649;42.968;1.608;2023-02-15T06:01:09;16.10;;;9.60;;
70253;SDS011;57649;42.968;1.608;2023-02-15T06:03:38;11.63;;;9.18;;
70253;SDS011;57649;42.968;1.608;2023-02-15T06:06:04;15.30;;;9.52;;
70253;SDS011;57649;42.968;1.608;2023-02-15T06:08:31;15.35;;;10.10;;
70253;SDS011;57649;42.968;1.608;2023-02-15T06:10:57;14.07;;;10.27;;
70253;SDS011;57649;42.968;1.608;2023-02-15T06:13:23;15.55;;;10.02;;
70253;SDS011;57649;42.968;1.608;2023-02-15T06:15:48;15.75;;;9.75;;
70253;SDS011;57649;42.968;1.608;2023-02-15T06:18:14;17.23;;;10.27;;
70253;SDS011;57649;42.968;1.608;2023-02-15T06:20:39;15.32;;;9.15;;
70253;SDS011;57649;42.968;1.608;2023-02-15T06:23:04;15.10;;;9.35;;
70253;SDS011;57649;42.968;1.608;2023-02-15T06:25:30;13.02;;;9.95;;
70253;SDS011;57649;42.968;1.608;2023-02-15T06:27:55;13.95;;;9.25;;
70253;SDS011;57649;42.968;1.608;2023-02-15T06:30:21;16.80;;;9.68;;
70253;SDS011;57649;42.968;1.608;2023-02-15T06:32:46;13.63;;;9.50;;
70253;SDS011;57649;42.968;1.608;2023-02-15T06:35:12;16.30;;;9.85;;
70253;SDS011;57649;42.968;1.608;2023-02-15T06:37:37;13.27;;;9.70;;
70253;SDS011;57649;42.968;1.608;2023-02-15T06:40:03;14.13;;;10.02;;
70253;SDS011;57649;42.968;1.608;2023-02-15T06:42:29;14.95;;;9.73;;
70253;SDS011;57649;42.968;1.608;2023-02-15T06:44:55;20.33;;;12.00;;
70253;SDS011;57649;42.968;1.608;2023-02-15T06:47:20;21.83;;;13.52;;
70253;SDS011;57649;42.968;1.608;2023-02-15T06:49:45;21.08;;;14.43;;
70253;SDS011;57649;42.968;1.608;2023-02-15T06:52:11;25.45;;;15.48;;
70253;SDS011;57649;42.968;1.608;2023-02-15T06:54:36;25.13;;;16.33;;
70253;SDS011;57649;42.968;1.608;2023-02-15T06:57:02;25.00;;;18.02;;
70253;SDS011;57649;42.968;1.608;2023-02-15T06:59:27;29.48;;;16.95;;
70253;SDS011;57649;42.968;1.608;2023-02-15T07:01:52;22.25;;;15.23;;
70253;SDS011;57649;42.968;1.608;2023-02-15T07:04:18;23.52;;;15.55;;
70253;SDS011;57649;42.968;1.608;2023-02-15T07:06:43;24.45;;;14.85;;
70253;SDS011;57649;42.968;1.608;2023-02-15T07:09:09;22.15;;;15.95;;
70253;SDS011;57649;42.968;1.608;2023-02-15T07:11:34;31.25;;;17.92;;
70253;SDS011;57649;42.968;1.608;2023-02-15T07:14:18;25.75;;;17.85;;
70253;SDS011;57649;42.968;1.608;2023-02-15T07:16:44;27.00;;;17.88;;
70253;SDS011;57649;42.968;1.608;2023-02-15T07:19:09;24.20;;;17.33;;
70253;SDS011;57649;42.968;1.608;2023-02-15T07:21:35;24.23;;;16.05;;
70253;SDS011;57649;42.968;1.608;2023-02-15T07:24:01;26.42;;;15.63;;
70253;SDS011;57649;42.968;1.608;2023-02-15T07:26:27;21.67;;;13.43;;
70253;SDS011;57649;42.968;1.608;2023-02-15T07:28:53;22.48;;;14.75;;
70253;SDS011;57649;42.968;1.608;2023-02-15T07:31:18;19.75;;;13.30;;
70253;SDS011;57649;42.968;1.608;2023-02-15T07:33:44;32.95;;;17.52;;
70253;SDS011;57649;42.968;1.608;2023-02-15T07:36:09;30.33;;;18.58;;
70253;SDS011;57649;42.968;1.608;2023-02-15T07:38:37;26.65;;;17.60;;
70253;SDS011;57649;42.968;1.608;2023-02-15T07:41:14;29.23;;;17.83;;
70253;SDS011;57649;42.968;1.608;2023-02-15T07:43:41;20.02;;;13.68;;
70253;SDS011;57649;42.968;1.608;2023-02-15T07:46:09;24.00;;;13.93;;
70253;SDS011;57649;42.968;1.608;2023-02-15T07:48:37;20.73;;;13.15;;
70253;SDS011;57649;42.968;1.608;2023-02-15T07:51:04;20.23;;;13.73;;
70253;SDS011;57649;42.968;1.608;2023-02-15T07:53:31;25.48;;;13.82;;
70253;SDS011;57649;42.968;1.608;2023-02-15T07:56:04;28.58;;;16.95;;
70253;SDS011;57649;42.968;1.608;2023-02-15T07:58:32;29.30;;;18.00;;
70253;SDS011;57649;42.968;1.608;2023-02-15T08:01:16;32.70;;;19.02;;
70253;SDS011;57649;42.968;1.608;2023-02-15T08:03:52;47.70;;;22.25;;
70253;SDS011;57649;42.968;1.608;2023-02-15T08:06:19;35.03;;;21.80;;
70253;SDS011;57649;42.968;1.608;2023-02-15T08:08:45;33.75;;;20.85;;
70253;SDS011;57649;42.968;1.608;2023-02-15T08:11:15;30.60;;;20.17;;
70253;SDS011;57649;42.968;1.608;2023-02-15T08:14:09;38.08;;;20.80;;
70253;SDS011;57649;42.968;1.608;2023-02-15T08:21:42;26.63;;;16.13;;
70253;SDS011;57649;42.968;1.608;2023-02-15T08:24:10;30.63;;;19.00;;
70253;SDS011;57649;42.968;1.608;2023-02-15T08:26:36;27.65;;;16.67;;
70253;SDS011;57649;42.968;1.608;2023-02-15T08:29:04;28.55;;;16.75;;
70253;SDS011;57649;42.968;1.608;2023-02-15T08:31:30;32.13;;;16.60;;
70253;SDS011;57649;42.968;1.608;2023-02-15T08:33:56;28.45;;;16.88;;
70253;SDS011;57649;42.968;1.608;2023-02-15T08:36:26;33.85;;;15.20;;
70253;SDS011;57649;42.968;1.608;2023-02-15T08:38:54;20.95;;;13.60;;
70253;SDS011;57649;42.968;1.608;2023-02-15T08:41:26;22.17;;;13.57;;
70253;SDS011;57649;42.968;1.608;2023-02-15T08:43:55;21.48;;;13.90;;
70253;SDS011;57649;42.968;1.608;2023-02-15T08:46:22;20.02;;;12.77;;
70253;SDS011;57649;42.968;1.608;2023-02-15T08:48:49;22.45;;;13.38;;
70253;SDS011;57649;42.968;1.608;2023-02-15T08:51:19;19.13;;;12.30;;
70253;SDS011;57649;42.968;1.608;2023-02-15T08:53:48;19.90;;;14.05;;
70253;SDS011;57649;42.968;1.608;2023-02-15T08:56:15;21.00;;;13.82;;
70253;SDS011;57649;42.968;1.608;2023-02-15T08:58:42;23.92;;;14.00;;
70253;SDS011;57649;42.968;1.608;2023-02-15T09:01:09;19.23;;;12.88;;
70253;SDS011;57649;42.968;1.608;2023-02-15T09:03:35;18.65;;;12.23;;
70253;SDS011;57649;42.968;1.608;2023-02-15T09:06:01;22.13;;;12.63;;
70253;SDS011;57649;42.968;1.608;2023-02-15T09:08:27;17.85;;;12.10;;
70253;SDS011;57649;42.968;1.608;2023-02-15T09:10:53;21.13;;;12.38;;
70253;SDS011;57649;42.968;1.608;2023-02-15T09:13:19;17.85;;;9.13;;
70253;SDS011;57649;42.968;1.608;2023-02-15T09:15:46;21.65;;;9.77;;
70253;SDS011;57649;42.968;1.608;2023-02-15T09:18:12;17.95;;;9.20;;
70253;SDS011;57649;42.968;1.608;2023-02-15T09:20:42;14.95;;;8.40;;
70253;SDS011;57649;42.968;1.608;2023-02-15T09:23:09;13.00;;;7.43;;
70253;SDS011;57649;42.968;1.608;2023-02-15T09:25:34;10.30;;;6.63;;
70253;SDS011;57649;42.968;1.608;2023-02-15T09:27:59;19.40;;;7.85;;
70253;SDS011;57649;42.968;1.608;2023-02-15T09:30:25;10.50;;;6.90;;
70253;SDS011;57649;42.968;1.608;2023-02-15T09:32:50;10.40;;;6.80;;
70253;SDS011;57649;42.968;1.608;2023-02-15T09:35:16;10.82;;;7.50;;
70253;SDS011;57649;42.968;1.608;2023-02-15T09:37:41;13.35;;;6.75;;
70253;SDS011;57649;42.968;1.608;2023-02-15T09:40:07;13.75;;;6.97;;
70253;SDS011;57649;42.968;1.608;2023-02-15T09:45:47;15.93;;;7.47;;
70253;SDS011;57649;42.968;1.608;2023-02-15T09:54:16;13.50;;;6.13;;
70253;SDS011;57649;42.968;1.608;2023-02-15T09:57:04;15.38;;;7.57;;
70253;SDS011;57649;42.968;1.608;2023-02-15T10:02:31;7.28;;;5.55;;
70253;SDS011;57649;42.968;1.608;2023-02-15T10:08:01;12.32;;;6.50;;
70253;SDS011;57649;42.968;1.608;2023-02-15T10:19:21;8.32;;;5.00;;
70253;SDS011;57649;42.968;1.608;2023-02-15T10:27:37;13.15;;;6.03;;
70253;SDS011;57649;42.968;1.608;2023-02-15T10:35:26;15.55;;;5.97;;
70253;SDS011;57649;42.968;1.608;2023-02-15T10:38:18;10.32;;;4.90;;
70253;SDS011;57649;42.968;1.608;2023-02-15T10:46:31;12.40;;;4.70;;
70253;SDS011;57649;42.968;1.608;2023-02-15T11:03:24;10.27;;;5.20;;
70253;SDS011;57649;42.968;1.608;2023-02-15T11:06:16;9.38;;;5.68;;
70253;SDS011;57649;42.968;1.608;2023-02-15T11:08:52;8.30;;;5.20;;
70253;SDS011;57649;42.968;1.608;2023-02-15T11:11:22;9.18;;;4.68;;
70253;SDS011;57649;42.968;1.608;2023-02-15T11:13:56;8.82;;;4.82;;
70253;SDS011;57649;42.968;1.608;2023-02-15T11:16:29;11.80;;;5.97;;
70253;SDS011;57649;42.968;1.608;2023-02-15T11:19:06;14.07;;;6.22;;
70253;SDS011;57649;42.968;1.608;2023-02-15T11:21:43;12.30;;;6.35;;
70253;SDS011;57649;42.968;1.608;2023-02-15T11:24:12;9.85;;;6.22;;
70253;SDS011;57649;42.968;1.608;2023-02-15T11:26:47;9.65;;;5.28;;
70253;SDS011;57649;42.968;1.608;2023-02-15T11:32:14;9.38;;;5.38;;
70253;SDS011;57649;42.968;1.608;2023-02-15T11:37:44;8.98;;;5.38;;
70253;SDS011;57649;42.968;1.608;2023-02-15T11:42:55;8.77;;;3.97;;
70253;SDS011;57649;42.968;1.608;2023-02-15T11:45:25;7.35;;;4.88;;
70253;SDS011;57649;42.968;1.608;2023-02-15T11:47:52;9.23;;;4.10;;
70253;SDS011;57649;42.968;1.608;2023-02-15T11:50:20;11.93;;;6.75;;
70253;SDS011;57649;42.968;1.608;2023-02-15T11:52:49;6.35;;;3.92;;
70253;SDS011;57649;42.968;1.608;2023-02-15T11:55:21;8.32;;;5.10;;
70253;SDS011;57649;42.968;1.608;2023-02-15T11:57:53;6.40;;;4.25;;
70253;SDS011;57649;42.968;1.608;2023-02-15T12:00:45;6.40;;;4.03;;
70253;SDS011;57649;42.968;1.608;2023-02-15T12:03:15;7.00;;;3.97;;
70253;SDS011;57649;42.968;1.608;2023-02-15T12:05:47;7.47;;;3.40;;
70253;SDS011;57649;42.968;1.608;2023-02-15T12:08:19;6.43;;;4.22;;
70253;SDS011;57649;42.968;1.608;2023-02-15T12:10:56;8.48;;;4.15;;
70253;SDS011;57649;42.968;1.608;2023-02-15T12:13:25;6.15;;;4.13;;
70253;SDS011;57649;42.968;1.608;2023-02-15T12:15:52;9.73;;;3.67;;
70253;SDS011;57649;42.968;1.608;2023-02-15T12:18:38;6.95;;;4.22;;
70253;SDS011;57649;42.968;1.608;2023-02-15T12:21:15;6.57;;;4.05;;
70253;SDS011;57649;42.968;1.608;2023-02-15T12:23:53;7.68;;;3.80;;
70253;SDS011;57649;42.968;1.608;2023-02-15T12:26:34;5.32;;;3.75;;
70253;SDS011;57649;42.968;1.608;2023-02-15T12:29:01;5.10;;;3.60;;
70253;SDS011;57649;42.968;1.608;2023-02-15T12:31:39;6.93;;;3.35;;
70253;SDS011;57649;42.968;1.608;2023-02-15T12:34:11;4.90;;;3.37;;
70253;SDS011;57649;42.968;1.608;2023-02-15T12:36:51;7.35;;;3.13;;
70253;SDS011;57649;42.968;1.608;2023-02-15T12:39:24;5.78;;;3.67;;
70253;SDS011;57649;42.968;1.608;2023-02-15T12:44:25;5.10;;;3.40;;
70253;SDS011;57649;42.968;1.608;2023-02-15T12:47:01;10.55;;;3.10;;
70253;SDS011;57649;42.968;1.608;2023-02-15T12:49:45;6.45;;;3.72;;
70253;SDS011;57649;42.968;1.608;2023-02-15T12:52:36;7.93;;;3.50;;
70253;SDS011;57649;42.968;1.608;2023-02-15T12:55:18;4.97;;;3.20;;
70253;SDS011;57649;42.968;1.608;2023-02-15T12:57:46;6.07;;;3.40;;
70253;SDS011;57649;42.968;1.608;2023-02-15T13:00:28;4.18;;;3.10;;
70253;SDS011;57649;42.968;1.608;2023-02-15T13:03:21;9.18;;;3.28;;
70253;SDS011;57649;42.968;1.608;2023-02-15T13:05:51;6.57;;;3.47;;
70253;SDS011;57649;42.968;1.608;2023-02-15T13:08:38;5.45;;;2.90;;
70253;SDS011;57649;42.968;1.608;2023-02-15T13:11:11;7.85;;;4.03;;
70253;SDS011;57649;42.968;1.608;2023-02-15T13:13:53;5.30;;;2.90;;
70253;SDS011;57649;42.968;1.608;2023-02-15T13:16:21;7.78;;;3.90;;
70253;SDS011;57649;42.968;1.608;2023-02-15T13:18:55;8.90;;;3.60;;
70253;SDS011;57649;42.968;1.608;2023-02-15T13:21:23;6.03;;;3.25;;
70253;SDS011;57649;42.968;1.608;2023-02-15T13:23:53;3.00;;;2.40;;
70253;SDS011;57649;42.968;1.608;2023-02-15T13:26:25;6.28;;;2.75;;
70253;SDS011;57649;42.968;1.608;2023-02-15T13:29:12;6.85;;;3.60;;
70253;SDS011;57649;42.968;1.608;2023-02-15T13:31:43;5.70;;;2.55;;
70253;SDS011;57649;42.968;1.608;2023-02-15T13:34:14;6.45;;;2.70;;
70253;SDS011;57649;42.968;1.608;2023-02-15T13:37:05;6.13;;;2.88;;
70253;SDS011;57649;42.968;1.608;2023-02-15T13:46:00;8.98;;;3.28;;
70253;SDS011;57649;42.968;1.608;2023-02-15T13:51:05;7.15;;;2.67;;
70253;SDS011;57649;42.968;1.608;2023-02-15T14:02:24;5.68;;;2.90;;
70253;SDS011;57649;42.968;1.608;2023-02-15T14:04:59;3.97;;;2.97;;
70253;SDS011;57649;42.968;1.608;2023-02-15T14:15:34;7.03;;;4.40;;
70253;SDS011;57649;42.968;1.608;2023-02-15T14:20:55;7.72;;;3.28;;
70253;SDS011;57649;42.968;1.608;2023-02-15T14:26:09;4.78;;;3.30;;
70253;SDS011;57649;42.968;1.608;2023-02-15T14:28:55;4.60;;;3.00;;
70253;SDS011;57649;42.968;1.608;2023-02-15T14:31:39;11.32;;;3.22;;
70253;SDS011;57649;42.968;1.608;2023-02-15T14:34:15;7.47;;;3.90;;
70253;SDS011;57649;42.968;1.608;2023-02-15T14:36:46;5.95;;;3.40;;
70253;SDS011;57649;42.968;1.608;2023-02-15T14:45:29;11.65;;;5.72;;
70253;SDS011;57649;42.968;1.608;2023-02-15T14:48:10;6.57;;;4.10;;
70253;SDS011;57649;42.968;1.608;2023-02-15T14:50:42;6.70;;;3.50;;
70253;SDS011;57649;42.968;1.608;2023-02-15T14:53:14;5.53;;;3.33;;
70253;SDS011;57649;42.968;1.608;2023-02-15T14:58:38;7.65;;;3.72;;
70253;SDS011;57649;42.968;1.608;2023-02-15T15:01:31;8.82;;;3.85;;
70253;SDS011;57649;42.968;1.608;2023-02-15T15:04:00;7.40;;;4.55;;
70253;SDS011;57649;42.968;1.608;2023-02-15T15:11:42;7.20;;;3.78;;
70253;SDS011;57649;42.968;1.608;2023-02-15T15:14:09;9.13;;;4.07;;
70253;SDS011;57649;42.968;1.608;2023-02-15T15:19:02;6.70;;;3.70;;
70253;SDS011;57649;42.968;1.608;2023-02-15T15:30:48;9.73;;;3.88;;
70253;SDS011;57649;42.968;1.608;2023-02-15T15:38:05;10.07;;;3.70;;
70253;SDS011;57649;42.968;1.608;2023-02-15T15:49:29;10.18;;;3.90;;
70253;SDS011;57649;42.968;1.608;2023-02-15T15:52:19;7.00;;;3.60;;
70253;SDS011;57649;42.968;1.608;2023-02-15T15:54:46;8.27;;;3.92;;
70253;SDS011;57649;42.968;1.608;2023-02-15T15:57:28;9.75;;;3.90;;
70253;SDS011;57649;42.968;1.608;2023-02-15T15:59:57;8.23;;;4.10;;
70253;SDS011;57649;42.968;1.608;2023-02-15T16:02:26;10.50;;;5.38;;
70253;SDS011;57649;42.968;1.608;2023-02-15T16:04:51;4.93;;;3.65;;
70253;SDS011;57649;42.968;1.608;2023-02-15T16:12:23;7.32;;;4.50;;
70253;SDS011;57649;42.968;1.608;2023-02-15T16:14:51;10.15;;;5.22;;
70253;SDS011;57649;42.968;1.608;2023-02-15T16:17:22;11.52;;;4.88;;
70253;SDS011;57649;42.968;1.608;2023-02-15T16:19:50;8.93;;;4.60;;
70253;SDS011;57649;42.968;1.608;2023-02-15T16:22:19;13.98;;;5.15;;
70253;SDS011;57649;42.968;1.608;2023-02-15T16:32:55;19.67;;;5.70;;
70253;SDS011;57649;42.968;1.608;2023-02-15T16:35:27;11.95;;;5.32;;
70253;SDS011;57649;42.968;1.608;2023-02-15T16:37:53;12.13;;;6.18;;
70253;SDS011;57649;42.968;1.608;2023-02-15T16:40:30;7.88;;;5.07;;
70253;SDS011;57649;42.968;1.608;2023-02-15T16:43:24;12.15;;;6.13;;
70253;SDS011;57649;42.968;1.608;2023-02-15T16:45:58;11.30;;;5.70;;
70253;SDS011;57649;42.968;1.608;2023-02-15T16:48:29;16.60;;;8.43;;
70253;SDS011;57649;42.968;1.608;2023-02-15T16:50:56;13.73;;;6.97;;
70253;SDS011;57649;42.968;1.608;2023-02-15T16:53:24;10.60;;;7.03;;
70253;SDS011;57649;42.968;1.608;2023-02-15T16:55:55;12.80;;;6.83;;
70253;SDS011;57649;42.968;1.608;2023-02-15T16:58:43;13.63;;;7.88;;
70253;SDS011;57649;42.968;1.608;2023-02-15T17:01:11;16.10;;;9.00;;
70253;SDS011;57649;42.968;1.608;2023-02-15T17:03:39;16.07;;;8.80;;
70253;SDS011;57649;42.968;1.608;2023-02-15T17:06:18;9.75;;;6.32;;
70253;SDS011;57649;42.968;1.608;2023-02-15T17:08:46;10.38;;;6.10;;
70253;SDS011;57649;42.968;1.608;2023-02-15T17:18:59;25.15;;;16.45;;
70253;SDS011;57649;42.968;1.608;2023-02-15T17:21:36;19.45;;;11.30;;
70253;SDS011;57649;42.968;1.608;2023-02-15T17:24:06;18.42;;;12.90;;
70253;SDS011;57649;42.968;1.608;2023-02-15T17:26:42;14.55;;;9.48;;
70253;SDS011;57649;42.968;1.608;2023-02-15T17:29:22;14.30;;;10.07;;
70253;SDS011;57649;42.968;1.608;2023-02-15T17:31:56;15.70;;;9.98;;
70253;SDS011;57649;42.968;1.608;2023-02-15T17:37:31;13.80;;;8.95;;
70253;SDS011;57649;42.968;1.608;2023-02-15T17:39:57;16.83;;;11.13;;
70253;SDS011;57649;42.968;1.608;2023-02-15T17:42:25;16.08;;;10.43;;
70253;SDS011;57649;42.968;1.608;2023-02-15T17:44:50;10.48;;;7.85;;
70253;SDS011;57649;42.968;1.608;2023-02-15T17:47:17;15.57;;;8.57;;
70253;SDS011;57649;42.968;1.608;2023-02-15T17:49:44;13.05;;;9.13;;
70253;SDS011;57649;42.968;1.608;2023-02-15T17:52:13;17.25;;;10.63;;
70253;SDS011;57649;42.968;1.608;2023-02-15T17:54:40;12.70;;;9.63;;
70253;SDS011;57649;42.968;1.608;2023-02-15T17:57:23;14.85;;;10.75;;
70253;SDS011;57649;42.968;1.608;2023-02-15T17:59:50;14.45;;;9.48;;
70253;SDS011;57649;42.968;1.608;2023-02-15T18:02:35;13.35;;;8.10;;
70253;SDS011;57649;42.968;1.608;2023-02-15T18:05:19;16.73;;;10.07;;
70253;SDS011;57649;42.968;1.608;2023-02-15T18:08:05;17.17;;;10.85;;
70253;SDS011;57649;42.968;1.608;2023-02-15T18:10:55;25.50;;;14.63;;
70253;SDS011;57649;42.968;1.608;2023-02-15T18:13:39;21.38;;;13.40;;